Time;durP1;ratioP1;P1;durP2;ratioP2;P2;SDS_P1;SDS_P2;PMS_P1;PMS_P2;Temp;Humidity;BMP_temperature;BMP_pressure;BME280_temperature;BME280_humidity;BME280_pressure;Samples;Min_cycle;Max_cycle;Signal;HPM_P1;HPM_P2
2023/12/17 00:02:07;;;;;;;14.40;10.10;;;;;;;6.15;93.20;101704.45;112434;247;38806;-71
2023/12/17 00:04:41;;;;;;;17.70;10.60;;;;;;;6.16;93.36;101698.39;112323;247;154200;-71
2023/12/17 00:07:15;;;;;;;23.20;12.10;;;;;;;6.16;93.45;101691.64;112447;247;38379;-72
2023/12/17 00:09:49;;;;;;;10.90;9.60;;;;;;;6.16;93.24;101700.12;112329;247;175014;-73
2023/12/17 00:12:23;;;;;;;16.80;9.20;;;;;;;6.19;93.36;101694.58;112455;247;39477;-73
2023/12/17 00:14:56;;;;;;;15.60;9.50;;;;;;;6.22;93.35;101693.55;112447;247;39656;-73
2023/12/17 00:17:30;;;;;;;14.80;10.10;;;;;;;6.24;93.47;101685.92;112305;245;153847;-72
2023/12/17 00:20:04;;;;;;;14.50;10.10;;;;;;;6.26;93.39;101685.92;112409;247;39463;-72
2023/12/17 00:22:39;;;;;;;16.10;9.50;;;;;;;6.25;93.33;101684.20;112431;247;39912;-72
2023/12/17 00:25:13;;;;;;;14.50;9.80;;;;;;;6.26;93.24;101669.46;112397;248;38616;-72
2023/12/17 00:27:47;;;;;;;14.30;9.10;;;;;;;6.25;93.11;101670.34;112357;248;38520;-72
2023/12/17 00:30:21;;;;;;;15.90;10.00;;;;;;;6.26;93.24;101672.93;112289;245;153943;-72
2023/12/17 00:32:55;;;;;;;17.30;9.80;;;;;;;6.27;93.33;101683.16;112451;248;38383;-73
2023/12/17 00:35:29;;;;;;;12.10;8.70;;;;;;;6.29;93.23;101690.10;112299;245;154649;-73
2023/12/17 00:38:03;;;;;;;11.70;8.60;;;;;;;6.30;93.18;101686.10;112423;248;38832;-72
2023/12/17 00:40:37;;;;;;;16.80;10.00;;;;;;;6.32;93.24;101682.13;112454;248;39058;-72
2023/12/17 00:43:11;;;;;;;15.90;9.80;;;;;;;6.37;93.30;101672.25;112402;246;38285;-72
2023/12/17 00:45:45;;;;;;;12.90;9.80;;;;;;;6.38;93.11;101675.89;112425;247;38805;-72
2023/12/17 00:48:19;;;;;;;14.90;10.70;;;;;;;6.36;93.00;101673.28;112284;246;154420;-72
2023/12/17 00:50:53;;;;;;;16.50;9.80;;;;;;;6.37;93.02;101685.08;112454;248;38531;-71
2023/12/17 00:53:27;;;;;;;15.50;9.40;;;;;;;6.38;92.93;101685.06;112280;245;155513;-71
2023/12/17 00:56:01;;;;;;;14.70;9.10;;;;;;;6.40;92.95;101685.59;112423;247;38354;-72
2023/12/17 00:58:35;;;;;;;16.10;9.60;;;;;;;6.45;92.90;101680.56;112457;247;39783;-73
2023/12/17 01:01:09;;;;;;;18.30;10.30;;;;;;;6.44;92.64;101686.29;112291;245;153744;-72
2023/12/17 01:03:43;;;;;;;17.00;10.20;;;;;;;6.45;92.78;101685.23;112436;247;38243;-72
2023/12/17 01:06:16;;;;;;;13.90;9.30;;;;;;;6.47;92.74;101695.47;112304;245;154980;-72
2023/12/17 01:08:50;;;;;;;13.30;9.40;;;;;;;6.49;92.44;101699.28;112423;247;40326;-72
2023/12/17 01:11:24;;;;;;;15.40;9.50;;;;;;;6.49;92.45;101691.14;112347;245;154373;-73
2023/12/17 01:13:58;;;;;;;14.60;10.30;;;;;;;6.49;92.35;101688.36;112430;247;38314;-74
2023/12/17 01:16:32;;;;;;;18.70;10.70;;;;;;;6.50;92.51;101669.46;112182;247;241125;-72
2023/12/17 01:19:06;;;;;;;19.40;11.10;;;;;;;6.49;92.34;101662.02;112331;245;154236;-72
2023/12/17 01:21:40;;;;;;;16.70;10.10;;;;;;;6.49;92.29;101656.80;112461;247;39438;-72
2023/12/17 01:24:14;;;;;;;18.20;10.20;;;;;;;6.50;92.28;101657.33;112277;246;154777;-72
2023/12/17 01:26:48;;;;;;;14.90;9.90;;;;;;;6.51;92.28;101657.84;112480;247;39471;-73
2023/12/17 01:29:22;;;;;;;15.80;11.20;;;;;;;6.51;92.11;101653.17;112339;244;154602;-73
2023/12/17 01:31:57;;;;;;;17.80;11.00;;;;;;;6.52;92.29;101646.41;112536;246;39520;-72
2023/12/17 01:34:31;;;;;;;15.30;10.40;;;;;;;6.54;92.34;101645.55;112533;246;38334;-72
2023/12/17 01:37:05;;;;;;;18.40;10.20;;;;;;;6.57;92.32;101650.91;112340;244;154511;-72
2023/12/17 01:39:39;;;;;;;20.60;11.10;;;;;;;6.58;92.15;101645.02;112525;246;38702;-72
2023/12/17 01:42:13;;;;;;;19.10;11.40;;;;;;;6.59;92.19;101648.30;112381;244;154216;-72
2023/12/17 01:44:47;;;;;;;17.30;10.80;;;;;;;6.60;92.14;101636.70;112507;246;39067;-72
2023/12/17 01:47:21;;;;;;;19.10;10.90;;;;;;;6.60;91.95;101629.75;112379;244;154848;-72
2023/12/17 01:49:55;;;;;;;17.10;10.20;;;;;;;6.60;92.14;101625.06;112527;246;39624;-72
2023/12/17 01:52:28;;;;;;;17.30;10.20;;;;;;;6.62;92.07;101628.55;112577;246;38313;-71
2023/12/17 01:55:03;;;;;;;21.30;12.00;;;;;;;6.62;92.04;101628.37;112368;244;153869;-71
2023/12/17 01:57:37;;;;;;;17.30;11.30;;;;;;;6.63;92.16;101634.60;112550;246;39659;-72
2023/12/17 02:00:13;;;;;;;19.30;11.20;;;;;;;6.64;92.25;101632.17;112369;244;154321;-72
2023/12/17 02:02:47;;;;;;;19.00;10.80;;;;;;;6.63;92.12;101618.65;112503;246;39768;-72
2023/12/17 02:05:21;;;;;;;17.00;10.60;;;;;;;6.63;92.15;101613.79;112425;244;156098;-72
2023/12/17 02:07:55;;;;;;;15.10;9.60;;;;;;;6.64;92.09;101613.27;112532;246;40460;-71
2023/12/17 02:10:29;;;;;;;18.90;10.30;;;;;;;6.64;91.95;101614.14;112546;246;38659;-71
2023/12/17 02:13:04;;;;;;;16.70;10.30;;;;;;;6.66;92.19;101608.06;112376;244;154804;-72
2023/12/17 02:15:38;;;;;;;15.80;10.60;;;;;;;6.64;92.18;101611.38;112557;246;39557;-72
2023/12/17 02:18:12;;;;;;;18.00;10.90;;;;;;;6.64;92.21;101607.90;112262;244;172402;-72
2023/12/17 02:20:50;;;;;;;14.60;9.90;;;;;;;6.66;92.38;101615.70;112532;246;39752;-73
2023/12/17 02:23:23;;;;;;;18.40;10.80;;;;;;;6.69;92.37;101615.17;112435;244;155602;-73
2023/12/17 02:25:57;;;;;;;17.00;10.70;;;;;;;6.72;92.51;101610.31;112530;246;38981;-72
2023/12/17 02:28:31;;;;;;;17.10;10.30;;;;;;;6.76;92.61;101612.73;112569;246;38535;-73
2023/12/17 02:31:06;;;;;;;18.00;11.00;;;;;;;6.76;92.49;101602.67;112354;246;154722;-72
2023/12/17 02:33:39;;;;;;;17.80;10.20;;;;;;;6.77;92.56;101598.16;112399;246;38603;-73
2023/12/17 02:36:13;;;;;;;15.70;9.80;;;;;;;6.77;92.54;101588.61;112378;244;154565;-73
2023/12/17 02:38:51;;;;;;;15.90;9.50;;;;;;;6.78;92.57;101591.39;112364;246;174964;-73
2023/12/17 02:41:32;;;;;;;17.70;10.20;;;;;;;6.80;92.69;101594.00;111714;244;908356;-73
2023/12/17 02:44:10;;;;;;;15.90;10.40;;;;;;;6.79;92.68;101598.33;112418;246;38777;-73
2023/12/17 02:46:44;;;;;;;16.90;9.90;;;;;;;6.79;92.80;101601.79;112542;246;39410;-72
2023/12/17 02:49:18;;;;;;;17.70;9.80;;;;;;;6.80;92.89;101602.84;112426;247;40508;-72
2023/12/17 02:51:52;;;;;;;14.30;9.40;;;;;;;6.81;93.02;101620.01;112421;247;38276;-71
2023/12/17 02:54:26;;;;;;;14.60;9.40;;;;;;;6.85;93.06;101619.48;112314;245;154607;-71
2023/12/17 02:57:00;;;;;;;16.00;10.40;;;;;;;6.88;93.09;101617.55;112415;247;40095;-73
2023/12/17 02:59:34;;;;;;;19.70;10.30;;;;;;;6.90;93.12;101612.86;112273;245;154087;-73
2023/12/17 03:02:08;;;;;;;15.20;10.60;;;;;;;6.92;93.18;101613.21;112440;247;39483;-73
2023/12/17 03:04:42;;;;;;;15.40;10.60;;;;;;;6.93;93.20;101605.73;112461;247;38255;-72
2023/12/17 03:07:16;;;;;;;18.00;10.10;;;;;;;6.95;93.15;101615.28;112441;247;38701;-72
2023/12/17 03:09:49;;;;;;;16.50;9.30;;;;;;;6.98;93.22;101625.33;112437;247;38698;-74
2023/12/17 03:12:23;;;;;;;15.70;9.90;;;;;;;7.01;93.18;101625.68;112315;245;154143;-72
2023/12/17 03:14:57;;;;;;;15.50;10.50;;;;;;;7.03;93.13;101626.70;112428;247;38508;-72
2023/12/17 03:17:31;;;;;;;17.50;10.50;;;;;;;7.02;93.10;101623.23;112314;245;154665;-71
2023/12/17 03:20:06;;;;;;;16.50;10.50;;;;;;;7.00;92.90;101621.52;112417;247;38319;-71
2023/12/17 03:22:40;;;;;;;19.10;10.30;;;;;;;7.02;93.15;101622.54;112425;247;39383;-73
2023/12/17 03:25:14;;;;;;;15.90;10.10;;;;;;;7.06;93.34;101614.89;112313;245;154634;-73
2023/12/17 03:27:48;;;;;;;17.30;10.40;;;;;;;7.10;93.32;101631.55;112434;247;39573;-72
2023/12/17 03:30:23;;;;;;;18.70;10.50;;;;;;;7.11;93.18;101631.01;112294;245;155145;-72
2023/12/17 03:32:56;;;;;;;20.60;10.90;;;;;;;7.08;93.06;101629.64;112445;247;39841;-71
2023/12/17 03:35:31;;;;;;;17.60;10.20;;;;;;;7.08;93.26;101618.00;112324;245;154752;-71
2023/12/17 03:38:05;;;;;;;19.40;11.00;;;;;;;7.09;93.33;101622.00;112430;247;38397;-74
2023/12/17 03:40:39;;;;;;;16.80;10.60;;;;;;;7.09;93.33;101622.35;112425;247;38456;-72
2023/12/17 03:43:13;;;;;;;18.30;9.90;;;;;;;7.10;93.41;101619.58;112202;245;174928;-72
2023/12/17 03:45:46;;;;;;;18.30;10.20;;;;;;;7.09;93.37;101624.95;112453;247;38815;-72
2023/12/17 03:48:20;;;;;;;18.90;10.60;;;;;;;7.09;93.46;101616.09;112281;245;154130;-72
2023/12/17 03:50:54;;;;;;;18.50;9.90;;;;;;;7.10;93.64;101614.53;112422;247;38475;-72
2023/12/17 03:53:28;;;;;;;16.70;10.10;;;;;;;7.11;93.56;101616.27;112308;245;154548;-72
2023/12/17 03:56:02;;;;;;;16.30;10.10;;;;;;;7.11;93.63;101612.27;112416;247;38729;-73
2023/12/17 03:58:36;;;;;;;19.90;10.30;;;;;;;7.11;93.73;101611.41;112441;247;38628;-74
2023/12/17 04:01:10;;;;;;;19.00;10.90;;;;;;;7.14;93.88;101611.22;112263;245;154648;-73
2023/12/17 04:03:44;;;;;;;19.80;10.20;;;;;;;7.14;93.87;101605.49;112447;247;38709;-73
2023/12/17 04:06:18;;;;;;;18.10;11.10;;;;;;;7.17;94.20;101603.75;112309;245;155401;-73
2023/12/17 04:08:52;;;;;;;17.50;9.90;;;;;;;7.17;93.95;101604.80;112432;247;38671;-73
2023/12/17 04:11:26;;;;;;;17.90;10.20;;;;;;;7.19;94.06;101608.59;112287;245;155647;-72
2023/12/17 04:14:20;;;;;;;17.50;10.20;;;;;;;7.19;93.90;101620.57;112405;247;40347;-71
2023/12/17 04:16:54;;;;;;;18.00;11.00;;;;;;;7.18;94.18;101623.70;112443;247;39561;-73
2023/12/17 04:19:28;;;;;;;19.40;10.50;;;;;;;7.18;94.33;101623.00;112278;248;38448;-73
2023/12/17 04:22:01;;;;;;;15.70;10.20;;;;;;;7.21;94.59;101632.02;112446;248;38550;-73
2023/12/17 04:24:35;;;;;;;20.50;10.30;;;;;;;7.22;94.44;101624.55;112282;248;155325;-73
2023/12/17 04:27:09;;;;;;;15.50;9.90;;;;;;;7.22;94.39;101613.79;112456;248;38562;-71
2023/12/17 04:29:43;;;;;;;15.90;10.10;;;;;;;7.26;94.75;101617.61;112283;248;154021;-71
2023/12/17 04:32:17;;;;;;;13.80;9.90;;;;;;;7.30;94.93;101620.35;112405;248;38573;-73
2023/12/17 04:34:55;;;;;;;19.00;11.10;;;;;;;7.33;94.90;101626.07;112422;247;38578;-73
2023/12/17 04:37:29;;;;;;;17.50;9.70;;;;;;;7.29;94.65;101619.13;112370;248;38319;-73
2023/12/17 04:40:03;;;;;;;16.20;10.20;;;;;;;7.29;94.79;101621.57;112436;247;38584;-73
2023/12/17 04:42:38;;;;;;;16.80;10.00;;;;;;;7.32;94.99;101619.30;112279;245;156131;-73
2023/12/17 04:45:13;;;;;;;13.80;10.00;;;;;;;7.34;94.94;101630.92;112471;248;38862;-73
2023/12/17 04:47:47;;;;;;;14.50;10.10;;;;;;;7.35;94.91;101619.98;112329;245;153823;-72
2023/12/17 04:50:21;;;;;;;17.00;10.30;;;;;;;7.35;94.91;101616.52;112435;248;38322;-72
2023/12/17 04:52:55;;;;;;;16.00;9.90;;;;;;;7.35;94.91;101621.20;112434;248;38324;-72
2023/12/17 04:55:29;;;;;;;15.80;9.70;;;;;;;7.36;95.11;101631.27;112295;247;174974;-72
2023/12/17 04:58:03;;;;;;;15.70;10.00;;;;;;;7.37;95.05;101628.48;112466;247;38538;-72
2023/12/17 05:00:37;;;;;;;13.90;9.90;;;;;;;7.41;95.30;101628.46;112185;245;188893;-73
2023/12/17 05:03:11;;;;;;;17.00;10.30;;;;;;;7.42;95.22;101619.77;112394;247;38818;-73
2023/12/17 05:05:45;;;;;;;16.00;10.00;;;;;;;7.42;95.26;101613.70;112411;247;39756;-71
2023/12/17 05:08:19;;;;;;;14.30;9.50;;;;;;;7.43;95.27;101611.96;112460;247;38455;-71
2023/12/17 05:10:53;;;;;;;14.70;9.40;;;;;;;7.44;95.28;101607.95;112458;247;39283;-71
2023/12/17 05:13:26;;;;;;;13.00;8.60;;;;;;;7.44;95.18;101616.98;112293;245;154470;-72
2023/12/17 05:16:00;;;;;;;14.70;9.40;;;;;;;7.46;95.41;101619.91;112475;247;38330;-72
2023/12/17 05:18:34;;;;;;;14.30;10.50;;;;;;;7.49;95.52;101616.43;112299;245;154640;-72
2023/12/17 05:21:09;;;;;;;14.10;10.20;;;;;;;7.47;95.35;101630.16;112399;247;39826;-74
2023/12/17 05:23:43;;;;;;;13.30;10.00;;;;;;;7.45;95.16;101633.47;112444;247;38368;-73
2023/12/17 05:26:17;;;;;;;14.40;9.20;;;;;;;7.41;95.38;101628.28;112480;247;38505;-72
2023/12/17 05:28:51;;;;;;;12.70;9.10;;;;;;;7.43;95.48;101630.19;112454;247;38453;-72
2023/12/17 05:31:25;;;;;;;13.20;9.20;;;;;;;7.45;95.69;101636.42;112205;245;189079;-72
2023/12/17 05:33:59;;;;;;;14.50;9.70;;;;;;;7.48;95.76;101641.09;112460;247;38673;-72
2023/12/17 05:36:33;;;;;;;15.00;10.30;;;;;;;7.51;95.76;101644.91;112422;247;39484;-72
2023/12/17 05:39:07;;;;;;;17.60;10.20;;;;;;;7.50;95.83;101646.65;112403;247;38730;-72
2023/12/17 05:41:41;;;;;;;15.40;9.80;;;;;;;7.52;95.90;101648.02;112322;247;154859;-72
2023/12/17 05:44:15;;;;;;;13.70;9.80;;;;;;;7.54;95.94;101644.55;112407;247;38627;-73
2023/12/17 05:46:48;;;;;;;15.50;10.20;;;;;;;7.55;95.76;101638.98;112448;247;38258;-72
2023/12/17 05:49:22;;;;;;;15.20;9.80;;;;;;;7.58;96.02;101642.43;112316;245;155280;-72
2023/12/17 05:51:56;;;;;;;14.80;10.20;;;;;;;7.59;96.00;101646.26;112428;247;38152;-72
2023/12/17 05:54:30;;;;;;;15.50;9.70;;;;;;;7.57;95.98;101658.95;112282;245;156281;-73
2023/12/17 05:57:04;;;;;;;13.80;9.50;;;;;;;7.59;96.10;101659.46;112455;247;38779;-72
2023/12/17 05:59:38;;;;;;;16.20;9.80;;;;;;;7.62;96.17;101658.38;112442;247;38307;-72
2023/12/17 06:02:12;;;;;;;12.90;9.40;;;;;;;7.64;96.10;101659.08;112434;247;38874;-71
2023/12/17 06:04:46;;;;;;;15.90;9.70;;;;;;;7.66;96.14;101656.64;112434;247;40018;-71
2023/12/17 06:07:20;;;;;;;15.90;10.20;;;;;;;7.67;96.15;101654.71;112341;245;153929;-72
2023/12/17 06:09:54;;;;;;;14.90;9.80;;;;;;;7.66;96.12;101659.06;112445;247;38854;-75
2023/12/17 06:12:28;;;;;;;17.70;9.50;;;;;;;7.68;96.23;101654.52;112269;245;154601;-75
2023/12/17 06:15:02;;;;;;;14.70;9.30;;;;;;;7.70;96.25;101650.19;112384;247;39734;-72
2023/12/17 06:17:36;;;;;;;13.00;9.10;;;;;;;7.72;96.17;101654.16;112438;247;38721;-72
2023/12/17 06:20:12;;;;;;;14.10;9.70;;;;;;;7.76;96.48;101664.56;112435;247;38264;-72
2023/12/17 06:22:46;;;;;;;17.20;10.20;;;;;;;7.77;96.02;101671.00;112418;247;39603;-72
2023/12/17 06:25:20;;;;;;;15.70;10.10;;;;;;;7.73;96.03;101668.92;112269;245;154377;-75
2023/12/17 06:27:56;;;;;;;17.10;9.80;;;;;;;7.72;96.09;101673.10;112415;247;38494;-75
2023/12/17 06:30:32;;;;;;;13.90;9.90;;;;;;;7.72;96.14;101671.19;112282;245;154633;-73
2023/12/17 06:33:06;;;;;;;13.20;9.80;;;;;;;7.74;96.14;101667.37;112387;247;38833;-72
2023/12/17 06:35:41;;;;;;;13.90;10.60;;;;;;;7.77;96.28;101667.86;112315;247;154280;-72
2023/12/17 06:38:15;;;;;;;16.80;10.10;;;;;;;7.77;96.32;101665.94;112408;247;38378;-73
2023/12/17 06:40:49;;;;;;;15.40;10.70;;;;;;;7.79;96.48;101665.25;112445;247;39528;-72
2023/12/17 06:43:22;;;;;;;14.00;9.10;;;;;;;7.81;96.43;101665.41;112315;245;155773;-71
2023/12/17 06:45:56;;;;;;;13.00;8.80;;;;;;;7.82;96.32;101666.10;112479;247;39118;-72
2023/12/17 06:48:30;;;;;;;13.10;8.90;;;;;;;7.83;96.22;101678.26;112287;245;154685;-73
2023/12/17 06:51:06;;;;;;;12.00;9.80;;;;;;;7.87;96.44;101678.40;112464;247;38297;-74
2023/12/17 06:53:39;;;;;;;12.90;9.20;;;;;;;7.89;96.49;101679.95;112291;245;154774;-74
2023/12/17 06:56:14;;;;;;;13.30;9.50;;;;;;;7.90;96.44;101678.39;112397;247;38208;-72
2023/12/17 06:58:48;;;;;;;15.70;9.50;;;;;;;7.91;96.32;101673.16;112419;247;38880;-72
2023/12/17 07:01:22;;;;;;;13.40;9.60;;;;;;;7.91;96.31;101676.29;112281;245;154846;-72
2023/12/17 07:03:56;;;;;;;17.10;9.80;;;;;;;7.93;96.29;101680.10;112440;247;38513;-72
2023/12/17 07:06:32;;;;;;;12.70;9.20;;;;;;;7.95;96.35;101676.09;112328;245;154499;-72
2023/12/17 07:09:07;;;;;;;14.00;10.00;;;;;;;7.98;96.45;101681.65;112416;247;39931;-72
2023/12/17 07:11:42;;;;;;;14.30;10.30;;;;;;;7.99;96.34;101693.63;112328;245;154622;-72
2023/12/17 07:14:16;;;;;;;15.70;9.90;;;;;;;7.98;96.04;101701.45;112434;247;38616;-72
2023/12/17 07:16:50;;;;;;;13.00;9.50;;;;;;;7.95;96.02;101720.23;112437;247;38840;-72
2023/12/17 07:19:24;;;;;;;14.90;9.70;;;;;;;7.97;96.18;101726.98;112295;245;155407;-71
2023/12/17 07:21:58;;;;;;;15.10;9.40;;;;;;;7.99;96.21;101732.55;112406;247;38888;-72
2023/12/17 07:24:32;;;;;;;13.30;9.90;;;;;;;8.00;96.14;101738.62;112336;245;153683;-72
2023/12/17 07:27:06;;;;;;;16.70;10.90;;;;;;;7.99;96.27;101734.46;112399;247;38230;-73
2023/12/17 07:29:40;;;;;;;11.50;9.20;;;;;;;8.01;96.07;101733.76;112305;245;155688;-73
2023/12/17 07:32:15;;;;;;;13.00;9.60;;;;;;;8.00;96.02;101730.64;112434;247;39825;-72
2023/12/17 07:34:48;;;;;;;12.40;8.90;;;;;;;8.00;96.19;101736.70;112406;247;38320;-72
2023/12/17 07:37:22;;;;;;;12.30;9.50;;;;;;;8.02;95.88;101740.36;112291;245;154484;-71
2023/12/17 07:39:57;;;;;;;12.80;10.40;;;;;;;7.99;95.93;101742.46;112475;247;39487;-71
2023/12/17 07:42:30;;;;;;;14.20;10.30;;;;;;;8.01;96.26;101744.17;112356;245;154336;-72
2023/12/17 07:45:05;;;;;;;14.90;10.20;;;;;;;8.03;96.24;101741.91;112415;247;38592;-73
2023/12/17 07:47:39;;;;;;;14.00;9.20;;;;;;;8.05;95.98;101746.94;112330;245;154794;-75
2023/12/17 07:50:13;;;;;;;13.30;9.30;;;;;;;8.06;96.22;101748.15;112429;247;38412;-72
2023/12/17 07:52:47;;;;;;;11.60;9.60;;;;;;;8.11;96.40;101736.64;112477;247;39739;-72
2023/12/17 07:55:21;;;;;;;12.10;9.90;;;;;;;8.15;96.44;101744.28;112267;247;154442;-72
2023/12/17 07:57:55;;;;;;;12.90;9.70;;;;;;;8.16;96.35;101745.65;112456;248;39990;-72
2023/12/17 08:00:29;;;;;;;14.00;9.90;;;;;;;8.16;95.90;101749.48;112327;245;154881;-72
2023/12/17 08:03:03;;;;;;;13.30;9.30;;;;;;;8.16;95.92;101751.39;112428;247;39110;-72
2023/12/17 08:05:37;;;;;;;11.50;9.60;;;;;;;8.15;95.80;101755.23;112275;245;155274;-72
2023/12/17 08:08:11;;;;;;;12.10;9.20;;;;;;;8.16;95.56;101756.61;112418;247;38891;-72
2023/12/17 08:10:45;;;;;;;12.20;10.00;;;;;;;8.14;95.56;101757.48;112467;247;38394;-74
2023/12/17 08:13:19;;;;;;;13.10;10.30;;;;;;;8.15;95.80;101754.19;112287;247;154923;-72
2023/12/17 08:15:54;;;;;;;11.40;9.30;;;;;;;8.18;96.03;101752.42;112466;247;38333;-72
2023/12/17 08:18:28;;;;;;;11.60;9.10;;;;;;;8.21;95.70;101763.86;112330;245;154746;-72
2023/12/17 08:21:02;;;;;;;12.10;9.70;;;;;;;8.21;95.46;101763.36;112315;247;174847;-73
2023/12/17 08:23:36;;;;;;;14.40;10.50;;;;;;;8.21;95.61;101767.35;112303;245;156028;-73
2023/12/17 08:26:12;;;;;;;13.80;10.30;;;;;;;8.22;95.54;101770.30;112391;247;39230;-71
2023/12/17 08:28:46;;;;;;;13.80;10.00;;;;;;;8.21;95.50;101773.96;112418;247;38314;-71
2023/12/17 08:31:20;;;;;;;13.90;10.50;;;;;;;8.24;95.57;101781.95;112338;247;154954;-71
2023/12/17 08:33:58;;;;;;;13.10;10.10;;;;;;;8.25;95.41;101779.33;112412;247;40215;-71
2023/12/17 08:36:31;;;;;;;12.80;10.30;;;;;;;8.25;95.40;101780.02;112315;245;154035;-74
2023/12/17 08:39:06;;;;;;;13.00;10.40;;;;;;;8.28;95.57;101778.10;112433;247;38935;-74
2023/12/17 08:41:40;;;;;;;12.80;10.10;;;;;;;8.29;95.32;101777.23;112305;245;154961;-72
2023/12/17 08:44:17;;;;;;;11.00;9.40;;;;;;;8.32;95.53;101773.37;112270;247;174877;-72
2023/12/17 08:46:51;;;;;;;12.90;9.90;;;;;;;8.33;95.03;101773.38;112424;247;38072;-72
2023/12/17 08:49:25;;;;;;;11.70;10.50;;;;;;;8.32;95.24;101775.63;112178;245;174927;-72
2023/12/17 08:51:59;;;;;;;14.10;10.60;;;;;;;8.34;95.32;101773.02;112444;247;39003;-74
2023/12/17 08:54:32;;;;;;;13.40;9.70;;;;;;;8.37;95.13;101768.86;112417;247;38447;-75
2023/12/17 08:57:07;;;;;;;12.00;9.50;;;;;;;8.39;95.21;101766.06;112462;247;39896;-74
2023/12/17 08:59:45;;;;;;;12.80;9.80;;;;;;;8.43;95.26;101767.60;112471;247;38784;-73
2023/12/17 09:02:19;;;;;;;13.80;10.50;;;;;;;8.46;95.14;101767.39;112477;247;38259;-72
2023/12/17 09:04:53;;;;;;;13.30;9.90;;;;;;;8.48;95.05;101763.56;112454;247;39707;-72
2023/12/17 09:07:27;;;;;;;13.20;9.90;;;;;;;8.50;94.90;101762.34;112286;245;154531;-73
2023/12/17 09:10:01;;;;;;;12.20;9.80;;;;;;;8.51;94.95;101759.01;112439;247;38702;-73
2023/12/17 09:12:35;;;;;;;12.90;9.80;;;;;;;8.56;94.85;101752.71;112307;245;153945;-73
2023/12/17 09:15:10;;;;;;;12.80;10.10;;;;;;;8.58;94.73;101749.92;112202;247;277031;-73
2023/12/17 09:17:45;;;;;;;13.80;10.10;;;;;;;8.58;94.53;101748.88;112302;245;154314;-75
2023/12/17 09:20:23;;;;;;;12.20;9.70;;;;;;;8.58;94.33;101752.18;112401;247;38300;-75
2023/12/17 09:22:57;;;;;;;10.90;9.60;;;;;;;8.60;94.44;101752.34;112434;247;39478;-74
2023/12/17 09:25:31;;;;;;;13.00;9.60;;;;;;;8.63;94.33;101761.36;112450;247;38982;-74
2023/12/17 09:28:05;;;;;;;14.30;9.90;;;;;;;8.64;94.29;101760.84;112449;247;39358;-75
2023/12/17 09:30:40;;;;;;;13.60;10.40;;;;;;;8.66;94.36;101762.38;112292;245;155026;-74
2023/12/17 09:33:14;;;;;;;14.20;11.20;;;;;;;8.68;94.16;101767.76;112423;247;38363;-73
2023/12/17 09:35:48;;;;;;;11.40;9.20;;;;;;;8.67;94.06;101767.59;112317;245;155205;-74
2023/12/17 09:38:22;;;;;;;10.80;9.10;;;;;;;8.69;94.08;101767.24;112378;247;39735;-74
2023/12/17 09:40:56;;;;;;;10.70;9.00;;;;;;;8.71;94.10;101765.48;112473;247;39730;-75
2023/12/17 09:43:30;;;;;;;12.20;10.40;;;;;;;8.74;94.04;101759.89;112416;247;39440;-75
2023/12/17 09:46:04;;;;;;;13.00;9.60;;;;;;;8.76;94.12;101768.73;112479;247;38341;-75
2023/12/17 09:48:38;;;;;;;12.50;9.40;;;;;;;8.75;93.91;101769.80;112281;245;156070;-75
2023/12/17 09:51:12;;;;;;;11.30;9.00;;;;;;;8.75;93.90;101765.79;112396;247;39425;-73
2023/12/17 09:53:46;;;;;;;11.10;8.90;;;;;;;8.79;93.94;101762.80;112431;247;38470;-73
2023/12/17 09:56:20;;;;;;;11.60;9.00;;;;;;;8.83;94.14;101761.90;112407;247;38887;-74
2023/12/17 09:58:55;;;;;;;12.70;9.10;;;;;;;8.87;94.10;101756.83;112454;247;39335;-74
2023/12/17 10:01:29;;;;;;;12.90;9.40;;;;;;;8.89;93.92;101754.20;112410;244;153759;-74
2023/12/17 10:04:03;;;;;;;11.40;8.90;;;;;;;8.87;93.70;101753.85;112534;246;38614;-74
2023/12/17 10:06:37;;;;;;;11.40;9.00;;;;;;;8.88;93.76;101758.02;112370;244;155098;-73
2023/12/17 10:09:11;;;;;;;11.60;8.70;;;;;;;8.90;93.84;101752.96;112514;246;39629;-73
2023/12/17 10:11:46;;;;;;;10.30;9.20;;;;;;;8.91;93.55;101747.38;112567;246;38234;-74
2023/12/17 10:14:28;;;;;;;11.20;9.90;;;;;;;8.90;93.56;101745.48;112411;246;38224;-75
2023/12/17 10:17:02;;;;;;;12.20;9.10;;;;;;;8.93;93.82;101743.38;112545;246;39467;-73
2023/12/17 10:19:36;;;;;;;13.60;9.80;;;;;;;8.96;93.82;101749.24;112565;246;38265;-73
2023/12/17 10:22:11;;;;;;;11.40;9.10;;;;;;;8.98;93.48;101749.23;112547;246;38723;-74
2023/12/17 10:24:46;;;;;;;12.50;10.70;;;;;;;8.99;93.51;101748.87;112417;244;154057;-75
2023/12/17 10:27:23;;;;;;;14.60;11.30;;;;;;;8.99;93.61;101753.23;112545;246;39488;-74
2023/12/17 10:30:02;;;;;;;13.70;11.20;;;;;;;8.99;93.37;101750.09;112539;246;38647;-74
2023/12/17 10:32:36;;;;;;;13.80;10.10;;;;;;;8.97;93.38;101742.63;112409;247;38958;-74
2023/12/17 10:35:11;;;;;;;12.60;9.90;;;;;;;8.98;93.45;101742.27;112462;247;39454;-74
2023/12/17 10:37:45;;;;;;;12.70;10.00;;;;;;;8.97;93.33;101745.59;112292;245;155626;-75
2023/12/17 10:40:20;;;;;;;11.50;9.40;;;;;;;8.97;93.23;101745.40;112450;247;38633;-76
2023/12/17 10:42:55;;;;;;;16.00;10.60;;;;;;;8.98;93.37;101749.77;112312;245;154545;-74
2023/12/17 10:45:31;;;;;;;12.80;10.90;;;;;;;8.98;93.22;101750.27;112429;247;38591;-74
2023/12/17 10:48:06;;;;;;;15.90;12.00;;;;;;;8.96;93.35;101751.86;112453;247;38375;-74
2023/12/17 10:50:40;;;;;;;15.70;11.40;;;;;;;8.94;93.36;101751.89;112409;248;38619;-74
2023/12/17 10:53:14;;;;;;;15.50;10.70;;;;;;;8.91;93.42;101747.39;112433;248;39736;-74
2023/12/17 10:55:48;;;;;;;16.30;11.40;;;;;;;8.91;93.38;101745.12;112313;244;154797;-74
2023/12/17 10:58:24;;;;;;;17.30;12.00;;;;;;;8.91;93.39;101740.94;112425;247;38370;-75
2023/12/17 11:00:58;;;;;;;18.10;13.10;;;;;;;8.93;93.57;101741.11;112308;245;154986;-74
2023/12/17 11:03:32;;;;;;;20.10;13.60;;;;;;;8.95;93.70;101742.13;112434;247;39730;-74
2023/12/17 11:06:09;;;;;;;17.30;14.80;;;;;;;8.94;93.56;101741.60;112430;247;40004;-74
2023/12/17 11:08:46;;;;;;;17.50;12.60;;;;;;;8.92;93.63;101736.93;112404;247;38389;-73
2023/12/17 11:11:22;;;;;;;17.60;13.10;;;;;;;8.91;93.71;101735.55;112477;247;39922;-74
2023/12/17 11:13:56;;;;;;;16.10;12.40;;;;;;;8.90;93.63;101735.20;112296;245;154695;-74
2023/12/17 11:16:30;;;;;;;18.70;13.80;;;;;;;8.88;93.45;101738.54;112436;247;38306;-74
2023/12/17 11:19:05;;;;;;;17.10;14.40;;;;;;;8.88;93.77;101740.98;112331;245;154747;-79
2023/12/17 11:21:39;;;;;;;18.40;13.60;;;;;;;8.87;93.75;101743.77;112412;247;38480;-74
2023/12/17 11:24:14;;;;;;;18.80;14.10;;;;;;;8.87;93.76;101740.29;112468;247;38367;-74
2023/12/17 11:26:48;;;;;;;19.40;14.40;;;;;;;8.86;93.79;101737.17;112425;247;38363;-76
2023/12/17 11:29:38;;;;;;;20.30;14.30;;;;;;;8.89;94.08;101738.88;112459;247;38336;-75
2023/12/17 11:32:12;;;;;;;19.30;15.10;;;;;;;8.89;93.83;101740.27;112246;247;153934;-73
2023/12/17 11:34:48;;;;;;;18.20;14.10;;;;;;;8.87;93.77;101742.72;112424;247;40004;-73
2023/12/17 11:37:24;;;;;;;18.90;14.30;;;;;;;8.85;93.80;101752.13;112314;245;154645;-74
2023/12/17 11:39:58;;;;;;;18.80;13.50;;;;;;;8.88;94.14;101753.86;112416;247;39724;-74
2023/12/17 11:42:36;;;;;;;17.20;13.70;;;;;;;8.87;93.82;101749.16;112425;247;38783;-74
2023/12/17 11:45:12;;;;;;;19.90;14.20;;;;;;;8.85;93.84;101744.31;111755;247;905651;-73
2023/12/17 11:47:46;;;;;;;20.00;14.40;;;;;;;8.84;94.05;101750.92;112416;247;38870;-75
2023/12/17 11:50:20;;;;;;;19.20;14.60;;;;;;;8.85;94.17;101750.92;112291;245;154536;-76